Terminal Aerodrome Forecast
Issued by NWS Mt. Holly, NJ

Home | Current Version | Previous Version | Text Only | Print | Product List | Glossary On
Versions: 1 2 3 4 5 6 7 8 9 10 11 12 13 14 15 16 17
335
FTUS41 KPHI 131130
TAFABE
TAF
KABE 131130Z 1312/1412 30010G22KT P6SM SCT035 BKN045
      TEMPO 1312/1314 6SM -SHSN
     FM131400 30015G28KT P6SM SCT040 BKN080
     FM131600 30020G35KT P6SM SCT040
     FM140000 30014G25KT P6SM SCT040
     FM140800 30012KT P6SM SKC=

USA.gov is the U.S. government's official web portal to all federal, state and local government web resources and services.